Lothian, MD

4:42 AM EDT on May 27, 2015 (GMT -0400)
Andrews Air Force Base-Naf | | Change Station
CLOSE
Current Station
Airport
Location: Andrews AFB,
Elevation: 282 ft
Nearby Weather Stations

Elev 282 ft 38.81 °N, 76.87 °W | Updated 29 minutes ago

Partly Cloudy
Partly Cloudy
72 °F
Feels Like 72 °F
N
6
Wind Variable Wind from South

Today
High -- | Low -- °F
--% Chance of Precip.
Yesterday
High -- | Low -- °F
Precip. -- in
5:45 AM 8:22 PM
Waxing Gibbous, 65% visible
Pressure 30.15 in
Visibility 10.0 miles
Clouds Mostly Cloudy 1900 ft
Dew Point 70 °F
Humidity 94%
Rainfall 0.00 in
Snow Depth Not available.
UV 0 out of 12
Pollen 8.20 out of 12
Air Quality Not available.
Flu Activity Sporadic
SPECI KADW 270813Z AUTO 18005KT 10SM BKN019 22/21 A3015 RMK AO2 BKN V FEW CHINO RWY19L $

More Conditions Fewer Conditions

Pressure 30.15 in
Visibility 10.0 miles
Clouds Mostly Cloudy 1900 ft
Dew Point 70 °F
Humidity 94%
Rainfall 0.00 in
Snow Depth Not available.
UV 0 out of 12
Pollen 8.20 out of 12
Air Quality Not available.
Flu Activity Sporadic
SPECI KADW 270813Z AUTO 18005KT 10SM BKN019 22/21 A3015 RMK AO2 BKN V FEW CHINO RWY19L $

More Conditions Fewer Conditions

10-Day Weather Forecast

Almanac

Astronomy

May. 27, 2015 Rise Set
Actual Time
Civil Twilight
Nautical Twilight
Astronomical Twilight
Moon
Length of Visible Light
Length of Day
Tomorrow will be .
, % of the Moon is Illuminated

Today's Extremes

State Highs State Lows

Community

WunderPhotos

Upload Photos

1,824,634 photos uploaded!

WunderBlogs® & News

Nearby

Air Quality

  Air Quality AQ Index Pollutant
Not available.

Snow Depth

Station Depth Elevation

Earthquake Activity

City Distance Mag. Time & Date
Minimum magnitude displayed is 2.5.

Coastal Water Temperatures

Place Temperature

Stations

Nearby Weather Stations

Station Location Temp. Windchill Dew Point Humidity Wind Precip. Elev Updated Type